Terminal Aerodrome Forecast
Issued by NWS

Home | Current Version | Previous Version | Text Only | Print | Product List | Glossary Off
Versions: 1 2 3 4 5 6 7 8 9 10 11 12 13 14 15 16 17 18 19 20

000
FTUS43 KGRB 271100 RRA
TAFMTW
TAF
KMTW 271143Z 2712/2812 34012KT P6SM -SHSN SCT025 BKN045
      TEMPO 2712/2715 5SM -SHSN BKN025
     FM271900 32010G15KT P6SM SCT050
     FM272300 29003KT P6SM SKC=

USA.gov is the U.S. government's official web portal to all federal, state and local government web resources and services.